Terminal Aerodrome Forecast
Issued by NWS

Home | Current Version | Previous Version | Text Only | Print | Product List | Glossary On
Versions: 1 2 3 4 5 6 7 8 9 10 11 12
000
FTUS42 KMLB 310500
TAFLEE
TAF
KLEE 310537Z 3106/0106 01007KT P6SM BKN250
     FM311500 07010KT P6SM BKN250
     FM010000 09007KT P6SM FEW040 BKN250=

USA.gov is the U.S. government's official web portal to all federal, state and local government web resources and services.